createdAt,value
2022-10-28T00:01:27.114Z,3.80
2022-10-28T00:07:39.283Z,4.10
2022-10-28T00:10:42.836Z,4.17
2022-10-28T00:13:47.331Z,4.53
2022-10-28T00:16:52.480Z,4.60
2022-10-28T00:19:56.119Z,5.13
2022-10-28T00:23:00.190Z,5.37
2022-10-28T00:26:11.055Z,5.00
2022-10-28T00:29:18.363Z,4.43
2022-10-28T00:32:23.380Z,5.47
2022-10-28T00:35:27.071Z,5.93
2022-10-28T00:38:32.580Z,6.30
2022-10-28T00:41:39.911Z,5.43
2022-10-28T00:44:58.734Z,5.93
2022-10-28T00:48:07.322Z,5.53
2022-10-28T00:51:12.076Z,5.50
2022-10-28T00:54:18.308Z,6.03
2022-10-28T00:57:30.534Z,6.37
2022-10-28T01:00:34.263Z,5.93
2022-10-28T01:03:39.568Z,6.13
2022-10-28T01:06:44.851Z,6.07
2022-10-28T01:09:48.775Z,6.47
2022-10-28T01:13:08.675Z,5.70
2022-10-28T01:16:27.252Z,6.73
2022-10-28T01:20:17.051Z,5.30
2022-10-28T01:23:32.587Z,5.90
2022-10-28T01:27:35.878Z,5.33
2022-10-28T01:31:29.439Z,5.50
2022-10-28T01:34:44.108Z,5.93
2022-10-28T01:38:08.614Z,5.73
2022-10-28T01:41:18.944Z,5.90
2022-10-28T01:44:31.355Z,6.63
2022-10-28T01:47:45.776Z,6.23
2022-10-28T01:50:58.048Z,6.37
2022-10-28T01:54:06.721Z,6.20
2022-10-28T01:57:14.318Z,6.10
2022-10-28T02:00:19.187Z,6.30
2022-10-28T02:03:24.443Z,5.90
2022-10-28T02:06:33.075Z,6.13
2022-10-28T02:10:04.078Z,6.30
2022-10-28T02:13:15.664Z,6.30
2022-10-28T02:16:31.981Z,5.93
2022-10-28T02:19:49.328Z,6.50
2022-10-28T02:23:00.315Z,5.57
2022-10-28T02:26:13.286Z,5.97
2022-10-28T02:29:24.568Z,6.10
2022-10-28T02:32:34.930Z,6.83
2022-10-28T02:35:47.311Z,5.53
2022-10-28T02:38:54.930Z,6.27
2022-10-28T02:42:04.342Z,6.13
2022-10-28T02:45:13.568Z,6.43
2022-10-28T02:48:27.323Z,7.20
2022-10-28T02:51:38.531Z,7.13
2022-10-28T02:54:51.220Z,7.10
2022-10-28T02:57:55.261Z,6.60
2022-10-28T03:00:59.058Z,7.27
2022-10-28T03:04:03.376Z,7.10
2022-10-28T03:07:08.429Z,6.57
2022-10-28T03:10:12.263Z,6.60
2022-10-28T03:13:15.849Z,6.50
2022-10-28T03:16:19.477Z,5.93
2022-10-28T03:19:23.375Z,6.60
2022-10-28T03:22:28.311Z,6.90
2022-10-28T03:25:32.376Z,6.87
2022-10-28T03:28:36.057Z,6.43
2022-10-28T03:31:39.589Z,6.30
2022-10-28T03:34:43.178Z,5.97
2022-10-28T03:37:48.223Z,6.83
2022-10-28T03:40:52.146Z,6.30
2022-10-28T03:43:55.913Z,6.13
2022-10-28T03:46:59.522Z,6.90
2022-10-28T03:50:03.305Z,6.87
2022-10-28T03:53:08.392Z,6.13
2022-10-28T03:56:13.559Z,7.30
2022-10-28T03:59:19.391Z,6.63
2022-10-28T04:02:24.091Z,6.10
2022-10-28T04:05:28.091Z,6.67
2022-10-28T04:08:33.011Z,6.33
2022-10-28T04:11:36.731Z,7.30
2022-10-28T04:14:40.473Z,6.60
2022-10-28T04:17:45.019Z,6.23
2022-10-28T04:20:48.702Z,7.17
2022-10-28T04:23:54.006Z,6.73
2022-10-28T04:26:57.731Z,6.33
2022-10-28T04:30:01.392Z,6.80
2022-10-28T04:33:05.086Z,6.13
2022-10-28T04:36:09.582Z,6.50
2022-10-28T04:39:14.539Z,6.17
2022-10-28T04:42:18.315Z,7.20
2022-10-28T04:45:21.902Z,7.13
2022-10-28T04:48:25.492Z,6.70
2022-10-28T04:51:29.032Z,7.13
2022-10-28T04:54:34.596Z,7.20
2022-10-28T04:57:38.212Z,6.90
2022-10-28T05:00:41.838Z,7.03
2022-10-28T05:03:45.445Z,7.20
2022-10-28T05:06:49.253Z,6.80
2022-10-28T05:09:54.168Z,6.70
2022-10-28T05:12:57.754Z,7.00
2022-10-28T05:16:01.322Z,7.00
2022-10-28T05:19:05.119Z,7.40
2022-10-28T05:22:08.683Z,6.90
2022-10-28T05:25:13.736Z,7.70
2022-10-28T05:28:17.637Z,6.60
2022-10-28T05:31:21.310Z,6.90
2022-10-28T05:34:24.951Z,7.07
2022-10-28T05:37:28.519Z,7.00
2022-10-28T05:40:33.726Z,6.43
2022-10-28T05:43:37.377Z,6.53
2022-10-28T05:46:40.996Z,6.57
2022-10-28T05:49:44.534Z,6.03
2022-10-28T05:52:49.746Z,6.50
2022-10-28T05:55:54.632Z,6.47
2022-10-28T05:58:58.349Z,6.63
2022-10-28T06:02:01.899Z,6.77
2022-10-28T06:05:06.749Z,5.67
2022-10-28T06:08:12.506Z,6.83
2022-10-28T06:11:16.037Z,7.00
2022-10-28T06:14:19.617Z,6.47
2022-10-28T06:17:23.715Z,7.13
2022-10-28T06:20:27.295Z,6.73
2022-10-28T06:23:31.024Z,6.40
2022-10-28T06:26:36.031Z,7.80
2022-10-28T06:29:39.879Z,6.70
2022-10-28T06:32:43.450Z,6.60
2022-10-28T06:35:47.060Z,7.30
2022-10-28T06:38:53.747Z,8.37
2022-10-28T06:41:58.789Z,7.93
2022-10-28T06:45:02.449Z,7.30
2022-10-28T06:48:07.953Z,7.10
2022-10-28T06:51:11.638Z,7.10
2022-10-28T06:54:15.425Z,6.37
2022-10-28T06:57:20.379Z,7.17
2022-10-28T07:00:24.073Z,7.17
2022-10-28T07:03:27.656Z,6.57
2022-10-28T07:06:31.215Z,7.03
2022-10-28T07:09:36.548Z,6.43
2022-10-28T07:12:41.501Z,6.77
2022-10-28T07:15:45.078Z,6.90
2022-10-28T07:18:48.797Z,6.90
2022-10-28T07:21:52.383Z,6.87
2022-10-28T07:24:55.972Z,6.27
2022-10-28T07:28:01.977Z,7.50
2022-10-28T07:31:07.144Z,6.87
2022-10-28T07:34:10.961Z,7.37
2022-10-28T07:37:14.545Z,7.40
2022-10-28T07:40:18.243Z,6.57
2022-10-28T07:43:23.229Z,6.13
2022-10-28T07:46:26.937Z,7.20
2022-10-28T07:49:30.491Z,6.63
2022-10-28T07:52:35.193Z,6.63
2022-10-28T07:55:38.874Z,5.77
2022-10-28T07:58:45.795Z,6.53
2022-10-28T08:01:49.423Z,5.90
2022-10-28T08:04:53.727Z,6.10
2022-10-28T08:07:57.446Z,5.70
2022-10-28T08:11:01.118Z,5.67
2022-10-28T08:14:06.109Z,5.17
2022-10-28T08:17:09.956Z,5.50
2022-10-28T08:20:13.585Z,5.07
2022-10-28T08:23:18.237Z,5.40
2022-10-28T08:26:22.334Z,5.13
2022-10-28T08:29:29.087Z,5.03
2022-10-28T08:32:33.730Z,4.60
2022-10-28T08:35:37.585Z,5.13
2022-10-28T08:38:45.352Z,4.70
2022-10-28T08:41:58.164Z,3.87
2022-10-28T08:45:30.617Z,4.37
2022-10-28T08:48:37.439Z,4.10
2022-10-28T08:51:52.103Z,4.77
2022-10-28T08:55:02.945Z,4.23
2022-10-28T08:58:15.062Z,3.90
2022-10-28T09:01:34.144Z,4.33
2022-10-28T09:04:41.561Z,4.23
2022-10-28T09:07:45.153Z,4.40
2022-10-28T09:11:15.558Z,4.13
2022-10-28T09:14:43.354Z,3.83
2022-10-28T09:17:55.990Z,4.10
2022-10-28T09:21:07.289Z,3.47
2022-10-28T09:24:22.125Z,4.30
2022-10-28T09:27:49.850Z,4.40
2022-10-28T09:31:10.722Z,3.70
2022-10-28T09:34:31.421Z,4.53
2022-10-28T09:37:41.619Z,3.63
2022-10-28T09:40:53.943Z,3.50
2022-10-28T09:44:07.265Z,4.13
2022-10-28T09:47:20.346Z,3.30
2022-10-28T09:50:31.778Z,3.77
2022-10-28T09:53:45.862Z,4.37
2022-10-28T09:56:49.507Z,3.97
2022-10-28T09:59:53.579Z,3.20
2022-10-28T10:02:59.953Z,3.63
2022-10-28T10:06:14.444Z,3.20
2022-10-28T10:09:24.987Z,3.40
2022-10-28T10:12:32.454Z,3.20
2022-10-28T10:15:41.266Z,3.80
2022-10-28T10:18:52.241Z,3.10
2022-10-28T10:21:57.423Z,3.30
2022-10-28T10:25:01.201Z,3.47
2022-10-28T10:28:16.783Z,2.93
2022-10-28T10:31:24.107Z,3.37
2022-10-28T10:34:30.169Z,3.50
2022-10-28T10:37:37.614Z,3.50
2022-10-28T10:40:51.021Z,3.23
2022-10-28T10:43:55.227Z,3.40
2022-10-28T10:47:22.808Z,3.17
2022-10-28T10:50:33.105Z,2.83
2022-10-28T10:53:41.078Z,3.57
2022-10-28T10:56:45.357Z,3.37
2022-10-28T10:59:53.484Z,3.73
2022-10-28T11:02:58.583Z,3.20
2022-10-28T11:06:22.684Z,3.40
2022-10-28T11:09:35.293Z,3.20
2022-10-28T11:12:41.654Z,3.33
2022-10-28T11:16:00.095Z,2.77
2022-10-28T11:19:21.778Z,3.67
2022-10-28T11:22:49.143Z,3.53
2022-10-28T11:26:01.144Z,3.70
2022-10-28T11:29:13.215Z,3.40
2022-10-28T11:33:01.686Z,3.73
2022-10-28T11:36:29.237Z,3.77
2022-10-28T11:39:40.402Z,3.80
2022-10-28T11:42:56.183Z,3.20
2022-10-28T11:46:10.252Z,4.40
2022-10-28T11:49:42.044Z,3.03
2022-10-28T11:53:27.183Z,3.20
2022-10-28T11:56:38.992Z,3.30
2022-10-28T12:00:08.269Z,4.13
2022-10-28T12:04:01.333Z,3.60
2022-10-28T12:07:39.912Z,3.73
2022-10-28T12:11:03.992Z,3.00
2022-10-28T12:14:22.417Z,3.03
2022-10-28T12:17:40.683Z,3.30
2022-10-28T12:20:52.951Z,3.20
2022-10-28T12:24:00.123Z,3.17
2022-10-28T12:27:17.034Z,3.63
2022-10-28T12:30:28.526Z,3.37
2022-10-28T12:33:40.635Z,3.03
2022-10-28T12:36:50.934Z,3.00
2022-10-28T12:40:07.350Z,3.67
2022-10-28T12:43:19.166Z,3.63
2022-10-28T12:46:40.015Z,3.83
2022-10-28T12:50:01.652Z,3.27
2022-10-28T12:53:29.872Z,3.70
2022-10-28T12:56:38.662Z,3.40
2022-10-28T12:59:49.250Z,3.47
2022-10-28T13:03:01.476Z,3.10
2022-10-28T13:06:41.701Z,3.60
2022-10-28T13:09:58.654Z,3.20
2022-10-28T13:13:36.825Z,4.03
2022-10-28T13:17:17.000Z,3.77
2022-10-28T13:20:32.621Z,2.97
2022-10-28T13:23:46.093Z,3.63
2022-10-28T13:26:51.104Z,4.13
2022-10-28T13:30:01.964Z,4.10
2022-10-28T13:33:10.906Z,3.20
2022-10-28T13:36:21.470Z,3.83
2022-10-28T13:39:43.324Z,3.00
2022-10-28T13:42:49.294Z,3.77
2022-10-28T13:45:55.816Z,4.13
2022-10-28T13:49:24.881Z,3.77
2022-10-28T13:52:28.464Z,3.67
2022-10-28T13:55:45.802Z,3.60
2022-10-28T13:58:56.746Z,3.70
2022-10-28T14:02:33.308Z,3.47
2022-10-28T14:05:55.212Z,3.90
2022-10-28T14:08:59.391Z,3.40
2022-10-28T14:12:18.923Z,3.43
2022-10-28T14:15:30.573Z,3.90
2022-10-28T14:18:43.782Z,3.73
2022-10-28T14:22:02.122Z,3.67
2022-10-28T14:26:01.076Z,3.70
2022-10-28T14:29:29.758Z,4.10
2022-10-28T14:33:31.311Z,3.70
2022-10-28T14:36:48.993Z,3.50
2022-10-28T14:40:09.632Z,4.10
2022-10-28T14:43:38.689Z,3.97
2022-10-28T14:47:05.411Z,3.80
2022-10-28T14:50:20.416Z,3.97
2022-10-28T14:53:30.606Z,3.93
2022-10-28T14:56:36.299Z,3.40
2022-10-28T14:59:44.705Z,3.30
2022-10-28T15:02:51.502Z,3.73
2022-10-28T15:05:57.085Z,3.83
2022-10-28T15:09:11.553Z,3.40
2022-10-28T15:12:18.896Z,3.90
2022-10-28T15:15:25.878Z,3.83
2022-10-28T15:18:30.808Z,4.30
2022-10-28T15:21:34.354Z,3.80
2022-10-28T15:24:40.385Z,3.70
2022-10-28T15:27:48.299Z,4.03
2022-10-28T15:30:52.043Z,3.90
2022-10-28T15:33:57.238Z,4.07
2022-10-28T15:37:01.353Z,4.40
2022-10-28T15:40:23.200Z,4.10
2022-10-28T15:43:29.646Z,4.03
2022-10-28T15:46:35.299Z,4.03
2022-10-28T15:49:42.506Z,4.33
2022-10-28T15:52:48.267Z,4.57
2022-10-28T15:56:21.782Z,4.50
2022-10-28T15:59:27.856Z,3.90
2022-10-28T16:02:45.982Z,4.10
2022-10-28T16:05:51.466Z,4.87
2022-10-28T16:09:19.288Z,4.37
2022-10-28T16:12:27.646Z,4.27
2022-10-28T16:15:31.689Z,4.03
2022-10-28T16:18:45.046Z,4.13
2022-10-28T16:21:50.029Z,4.20
2022-10-28T16:24:55.418Z,3.90
2022-10-28T16:27:59.042Z,4.70
2022-10-28T16:31:04.084Z,4.23
2022-10-28T16:34:07.740Z,4.37
2022-10-28T16:37:27.046Z,4.33
2022-10-28T16:40:50.565Z,3.70
2022-10-28T16:43:55.917Z,4.43
2022-10-28T16:46:59.557Z,4.87
2022-10-28T16:50:03.098Z,4.93
2022-10-28T16:53:08.257Z,6.10
2022-10-28T16:56:14.690Z,5.57
2022-10-28T16:59:19.602Z,5.97
2022-10-28T17:02:29.827Z,5.77
2022-10-28T17:05:34.582Z,6.03
2022-10-28T17:09:01.881Z,6.13
2022-10-28T17:12:03.127Z,5.83
2022-10-28T17:15:08.213Z,5.27
2022-10-28T17:18:15.034Z,5.97
2022-10-28T17:21:18.678Z,5.87
2022-10-28T17:24:23.669Z,6.37
2022-10-28T17:27:27.470Z,5.73
2022-10-28T17:30:31.916Z,6.07
2022-10-28T17:33:36.199Z,5.57
2022-10-28T17:36:40.048Z,6.00
2022-10-28T17:39:45.094Z,5.60
2022-10-28T17:42:48.791Z,5.13
2022-10-28T17:45:52.866Z,6.13
2022-10-28T17:48:56.638Z,5.33
2022-10-28T17:52:00.177Z,6.00
2022-10-28T17:55:06.008Z,6.53
2022-10-28T17:58:10.056Z,7.03
2022-10-28T18:01:13.759Z,5.83
2022-10-28T18:04:19.929Z,6.13
2022-10-28T18:07:23.971Z,6.60
2022-10-28T18:10:28.946Z,6.40
2022-10-28T18:13:34.750Z,5.33
2022-10-28T18:16:38.941Z,5.70
2022-10-28T18:19:42.695Z,5.83
2022-10-28T18:22:46.264Z,6.03
2022-10-28T18:25:59.872Z,6.10
2022-10-28T18:29:04.900Z,6.17
2022-10-28T18:32:08.822Z,5.47
2022-10-28T18:35:12.650Z,6.67
2022-10-28T18:38:16.228Z,7.10
2022-10-28T18:41:24.317Z,6.87
2022-10-28T18:44:31.857Z,6.63
2022-10-28T18:47:36.383Z,6.43
2022-10-28T18:50:40.144Z,6.03
2022-10-28T18:53:46.984Z,6.07
2022-10-28T18:56:56.587Z,5.80
2022-10-28T19:00:18.407Z,7.73
2022-10-28T19:03:24.626Z,6.23
2022-10-28T19:06:32.612Z,5.57
2022-10-28T19:09:36.599Z,5.67
2022-10-28T19:12:44.988Z,6.57
2022-10-28T19:15:51.878Z,5.57
2022-10-28T19:18:57.151Z,5.90
2022-10-28T19:22:00.805Z,6.30
2022-10-28T19:25:04.670Z,5.83
2022-10-28T19:28:10.317Z,6.30
2022-10-28T19:31:17.139Z,5.97
2022-10-28T19:34:20.935Z,7.53
2022-10-28T19:37:25.050Z,6.10
2022-10-28T19:40:28.759Z,6.60
2022-10-28T19:43:34.014Z,5.97
2022-10-28T19:46:38.055Z,6.17
2022-10-28T19:49:44.268Z,6.20
2022-10-28T19:52:48.151Z,6.63
2022-10-28T19:55:56.958Z,6.63
2022-10-28T19:59:04.330Z,6.20
2022-10-28T20:02:08.461Z,5.70
2022-10-28T20:05:12.108Z,6.17
2022-10-28T20:08:17.244Z,6.43
2022-10-28T20:11:26.276Z,5.77
2022-10-28T20:14:32.660Z,6.73
2022-10-28T20:17:36.421Z,6.47
2022-10-28T20:20:39.958Z,6.70
2022-10-28T20:23:45.172Z,5.27
2022-10-28T20:26:48.828Z,5.33
2022-10-28T20:29:53.866Z,5.40
2022-10-28T20:32:57.451Z,5.73
2022-10-28T20:36:01.087Z,5.73
2022-10-28T20:39:08.908Z,5.60
2022-10-28T20:42:12.880Z,6.43
2022-10-28T20:45:17.949Z,6.63
2022-10-28T20:48:22.272Z,6.43
2022-10-28T20:51:27.947Z,6.43
2022-10-28T20:54:31.574Z,5.97
2022-10-28T20:57:35.322Z,7.00
2022-10-28T21:00:40.455Z,6.73
2022-10-28T21:03:44.477Z,6.60
2022-10-28T21:06:48.101Z,6.17
2022-10-28T21:09:51.659Z,6.07
2022-10-28T21:12:56.349Z,5.83
2022-10-28T21:16:05.690Z,6.53
2022-10-28T21:19:09.350Z,7.00
2022-10-28T21:22:12.966Z,7.20
2022-10-28T21:25:16.693Z,6.23
2022-10-28T21:28:20.482Z,6.00
2022-10-28T21:31:26.385Z,6.57
2022-10-28T21:34:29.973Z,6.70
2022-10-28T21:37:33.796Z,6.90
2022-10-28T21:40:37.355Z,6.57
2022-10-28T21:43:44.202Z,6.00
2022-10-28T21:46:49.924Z,6.37
2022-10-28T21:49:53.522Z,6.27
2022-10-28T21:52:57.058Z,5.90
2022-10-28T21:56:05.534Z,6.13
2022-10-28T21:59:09.275Z,6.70
2022-10-28T22:02:14.342Z,6.80
2022-10-28T22:05:17.953Z,6.37
2022-10-28T22:08:22.169Z,6.37
2022-10-28T22:11:27.035Z,6.67
2022-10-28T22:14:30.857Z,6.60
2022-10-28T22:17:35.843Z,7.07
2022-10-28T22:20:39.508Z,7.23
2022-10-28T22:23:43.394Z,6.87
2022-10-28T22:26:47.063Z,6.70
2022-10-28T22:29:50.621Z,7.00
2022-10-28T22:32:55.980Z,7.37
2022-10-28T22:36:01.390Z,7.37
2022-10-28T22:39:06.423Z,7.57
2022-10-28T22:42:10.463Z,7.23
2022-10-28T22:45:34.007Z,7.37
2022-10-28T22:48:39.630Z,7.70
2022-10-28T22:51:43.248Z,7.60
2022-10-28T22:54:46.800Z,7.53
2022-10-28T22:57:50.425Z,7.40
2022-10-28T23:00:54.078Z,7.40
2022-10-28T23:03:59.222Z,7.40
2022-10-28T23:07:03.191Z,7.67
2022-10-28T23:10:08.017Z,7.90
2022-10-28T23:13:14.437Z,8.03
2022-10-28T23:16:18.137Z,8.70
2022-10-28T23:19:24.690Z,7.93
2022-10-28T23:22:30.495Z,8.10
2022-10-28T23:25:34.148Z,7.40
2022-10-28T23:28:37.766Z,8.20
2022-10-28T23:31:41.442Z,7.83
2022-10-28T23:34:46.446Z,9.17
2022-10-28T23:37:50.198Z,9.10
2022-10-28T23:41:01.874Z,8.13
2022-10-28T23:44:05.846Z,7.40
2022-10-28T23:47:09.421Z,9.23
2022-10-28T23:50:15.133Z,8.77
2022-10-28T23:53:19.730Z,8.07
2022-10-28T23:56:23.394Z,8.97
2022-10-28T23:59:26.941Z,8.73
